sensor_id;sensor_type;location;lat;lon;timestamp;temperature;humidity
43320;DHT22;28914;48.722;9.332;2023-03-01T00:02:10;1.90;62.30
43320;DHT22;28914;48.722;9.332;2023-03-01T00:07:29;1.80;62.20
43320;DHT22;28914;48.722;9.332;2023-03-01T00:12:48;1.80;62.20
43320;DHT22;28914;48.722;9.332;2023-03-01T00:18:08;1.80;62.40
43320;DHT22;28914;48.722;9.332;2023-03-01T00:23:27;1.70;62.50
43320;DHT22;28914;48.722;9.332;2023-03-01T00:28:47;1.70;62.70
43320;DHT22;28914;48.722;9.332;2023-03-01T00:34:06;1.70;62.70
43320;DHT22;28914;48.722;9.332;2023-03-01T00:39:25;1.60;62.70
43320;DHT22;28914;48.722;9.332;2023-03-01T00:44:45;1.60;62.70
43320;DHT22;28914;48.722;9.332;2023-03-01T00:50:04;1.60;62.90
43320;DHT22;28914;48.722;9.332;2023-03-01T00:55:24;1.50;64.00
43320;DHT22;28914;48.722;9.332;2023-03-01T01:00:44;1.50;63.60
43320;DHT22;28914;48.722;9.332;2023-03-01T01:06:03;1.40;63.60
43320;DHT22;28914;48.722;9.332;2023-03-01T01:11:29;1.40;63.80
43320;DHT22;28914;48.722;9.332;2023-03-01T01:16:48;1.30;63.60
43320;DHT22;28914;48.722;9.332;2023-03-01T01:22:07;1.30;64.00
43320;DHT22;28914;48.722;9.332;2023-03-01T01:27:26;1.30;64.30
43320;DHT22;28914;48.722;9.332;2023-03-01T01:32:46;1.20;64.50
43320;DHT22;28914;48.722;9.332;2023-03-01T01:38:05;1.20;64.80
43320;DHT22;28914;48.722;9.332;2023-03-01T01:43:30;1.30;65.30
43320;DHT22;28914;48.722;9.332;2023-03-01T01:48:53;1.40;65.60
43320;DHT22;28914;48.722;9.332;2023-03-01T01:54:20;1.50;65.70
43320;DHT22;28914;48.722;9.332;2023-03-01T01:59:43;1.70;65.80
43320;DHT22;28914;48.722;9.332;2023-03-01T02:05:12;1.90;66.20
43320;DHT22;28914;48.722;9.332;2023-03-01T02:10:34;2.10;66.30
43320;DHT22;28914;48.722;9.332;2023-03-01T02:15:54;2.30;66.10
43320;DHT22;28914;48.722;9.332;2023-03-01T02:21:45;2.50;65.90
43320;DHT22;28914;48.722;9.332;2023-03-01T02:27:07;2.70;65.90
43320;DHT22;28914;48.722;9.332;2023-03-01T02:32:26;2.90;65.40
43320;DHT22;28914;48.722;9.332;2023-03-01T02:37:46;3.10;65.00
43320;DHT22;28914;48.722;9.332;2023-03-01T02:43:09;3.30;65.60
43320;DHT22;28914;48.722;9.332;2023-03-01T02:48:42;3.50;64.60
43320;DHT22;28914;48.722;9.332;2023-03-01T02:54:29;3.60;64.40
43320;DHT22;28914;48.722;9.332;2023-03-01T02:59:51;3.80;64.20
43320;DHT22;28914;48.722;9.332;2023-03-01T03:05:15;3.80;64.00
43320;DHT22;28914;48.722;9.332;2023-03-01T03:10:39;4.00;63.90
43320;DHT22;28914;48.722;9.332;2023-03-01T03:15:58;4.00;63.70
43320;DHT22;28914;48.722;9.332;2023-03-01T03:21:18;4.10;63.50
43320;DHT22;28914;48.722;9.332;2023-03-01T03:26:37;4.20;63.30
43320;DHT22;28914;48.722;9.332;2023-03-01T03:31:56;4.20;63.10
43320;DHT22;28914;48.722;9.332;2023-03-01T03:37:15;4.30;63.10
43320;DHT22;28914;48.722;9.332;2023-03-01T03:42:54;4.30;62.80
43320;DHT22;28914;48.722;9.332;2023-03-01T03:48:14;4.40;62.80
43320;DHT22;28914;48.722;9.332;2023-03-01T03:53:34;4.40;62.70
43320;DHT22;28914;48.722;9.332;2023-03-01T03:58:53;4.40;62.60
43320;DHT22;28914;48.722;9.332;2023-03-01T04:04:12;4.50;62.60
43320;DHT22;28914;48.722;9.332;2023-03-01T04:09:32;4.50;62.50
43320;DHT22;28914;48.722;9.332;2023-03-01T04:14:51;4.50;62.50
43320;DHT22;28914;48.722;9.332;2023-03-01T04:20:13;4.60;62.60
43320;DHT22;28914;48.722;9.332;2023-03-01T04:25:32;4.60;62.40
43320;DHT22;28914;48.722;9.332;2023-03-01T04:30:53;4.60;62.30
43320;DHT22;28914;48.722;9.332;2023-03-01T04:36:14;4.70;62.20
43320;DHT22;28914;48.722;9.332;2023-03-01T04:41:33;4.70;62.20
43320;DHT22;28914;48.722;9.332;2023-03-01T04:46:53;4.70;62.00
43320;DHT22;28914;48.722;9.332;2023-03-01T04:52:12;4.70;62.00
43320;DHT22;28914;48.722;9.332;2023-03-01T04:57:31;4.80;62.00
43320;DHT22;28914;48.722;9.332;2023-03-01T05:02:56;4.80;62.00
43320;DHT22;28914;48.722;9.332;2023-03-01T05:08:15;4.80;62.00
43320;DHT22;28914;48.722;9.332;2023-03-01T05:13:39;4.80;61.90
43320;DHT22;28914;48.722;9.332;2023-03-01T05:18:59;4.80;61.70
43320;DHT22;28914;48.722;9.332;2023-03-01T05:24:18;4.80;61.70
43320;DHT22;28914;48.722;9.332;2023-03-01T05:29:37;4.90;61.90
43320;DHT22;28914;48.722;9.332;2023-03-01T05:34:58;4.90;61.70
43320;DHT22;28914;48.722;9.332;2023-03-01T05:40:20;4.90;61.70
43320;DHT22;28914;48.722;9.332;2023-03-01T05:45:40;4.90;61.70
43320;DHT22;28914;48.722;9.332;2023-03-01T05:50:59;4.90;61.70
43320;DHT22;28914;48.722;9.332;2023-03-01T05:56:19;4.90;61.50
43320;DHT22;28914;48.722;9.332;2023-03-01T06:01:41;4.90;61.70
43320;DHT22;28914;48.722;9.332;2023-03-01T06:07:00;4.90;61.60
43320;DHT22;28914;48.722;9.332;2023-03-01T06:12:19;5.00;62.20
43320;DHT22;28914;48.722;9.332;2023-03-01T06:17:40;5.00;62.10
43320;DHT22;28914;48.722;9.332;2023-03-01T06:22:59;5.00;61.90
43320;DHT22;28914;48.722;9.332;2023-03-01T06:28:19;5.00;61.60
43320;DHT22;28914;48.722;9.332;2023-03-01T06:33:38;5.00;61.50
43320;DHT22;28914;48.722;9.332;2023-03-01T06:38:58;5.00;61.70
43320;DHT22;28914;48.722;9.332;2023-03-01T06:44:17;4.90;61.60
43320;DHT22;28914;48.722;9.332;2023-03-01T06:49:36;4.90;61.50
43320;DHT22;28914;48.722;9.332;2023-03-01T06:54:55;4.90;61.50
43320;DHT22;28914;48.722;9.332;2023-03-01T07:00:15;4.90;61.60
43320;DHT22;28914;48.722;9.332;2023-03-01T07:05:34;4.80;61.50
43320;DHT22;28914;48.722;9.332;2023-03-01T07:10:57;4.80;61.70
43320;DHT22;28914;48.722;9.332;2023-03-01T07:16:16;4.80;61.80
43320;DHT22;28914;48.722;9.332;2023-03-01T07:21:36;4.80;61.80
43320;DHT22;28914;48.722;9.332;2023-03-01T07:26:57;4.80;61.90
43320;DHT22;28914;48.722;9.332;2023-03-01T07:32:16;4.90;62.00
43320;DHT22;28914;48.722;9.332;2023-03-01T07:37:35;4.90;62.10
43320;DHT22;28914;48.722;9.332;2023-03-01T07:42:56;5.00;62.20
43320;DHT22;28914;48.722;9.332;2023-03-01T07:48:15;5.10;62.20
43320;DHT22;28914;48.722;9.332;2023-03-01T07:53:34;5.30;62.10
43320;DHT22;28914;48.722;9.332;2023-03-01T07:58:54;5.40;62.10
43320;DHT22;28914;48.722;9.332;2023-03-01T08:04:13;5.60;62.00
43320;DHT22;28914;48.722;9.332;2023-03-01T08:09:35;5.80;61.70
43320;DHT22;28914;48.722;9.332;2023-03-01T08:14:55;6.00;61.60
43320;DHT22;28914;48.722;9.332;2023-03-01T08:20:16;6.30;61.30
43320;DHT22;28914;48.722;9.332;2023-03-01T08:25:35;6.50;61.00
43320;DHT22;28914;48.722;9.332;2023-03-01T08:30:54;6.70;60.20
43320;DHT22;28914;48.722;9.332;2023-03-01T08:36:14;7.00;60.20
43320;DHT22;28914;48.722;9.332;2023-03-01T08:41:34;7.20;60.10
43320;DHT22;28914;48.722;9.332;2023-03-01T08:46:54;7.50;59.90
43320;DHT22;28914;48.722;9.332;2023-03-01T08:52:14;7.70;59.80
43320;DHT22;28914;48.722;9.332;2023-03-01T08:57:33;8.00;59.20
43320;DHT22;28914;48.722;9.332;2023-03-01T09:02:53;8.40;58.30
43320;DHT22;28914;48.722;9.332;2023-03-01T09:08:12;8.60;56.70
43320;DHT22;28914;48.722;9.332;2023-03-01T09:13:31;9.00;56.40
43320;DHT22;28914;48.722;9.332;2023-03-01T09:18:53;9.40;56.60
43320;DHT22;28914;48.722;9.332;2023-03-01T09:24:14;10.00;56.30
43320;DHT22;28914;48.722;9.332;2023-03-01T09:29:34;11.20;56.40
43320;DHT22;28914;48.722;9.332;2023-03-01T09:34:53;12.80;53.80
43320;DHT22;28914;48.722;9.332;2023-03-01T09:40:27;14.70;52.50
43320;DHT22;28914;48.722;9.332;2023-03-01T09:45:48;16.60;52.00
43320;DHT22;28914;48.722;9.332;2023-03-01T09:51:14;18.50;48.30
43320;DHT22;28914;48.722;9.332;2023-03-01T09:56:59;20.30;49.10
43320;DHT22;28914;48.722;9.332;2023-03-01T10:02:38;22.30;46.90
43320;DHT22;28914;48.722;9.332;2023-03-01T10:14:04;25.30;36.00
43320;DHT22;28914;48.722;9.332;2023-03-01T10:19:36;25.40;29.20
43320;DHT22;28914;48.722;9.332;2023-03-01T10:24:59;25.00;30.20
43320;DHT22;28914;48.722;9.332;2023-03-01T10:30:33;24.90;32.40
43320;DHT22;28914;48.722;9.332;2023-03-01T10:35:53;25.30;30.90
43320;DHT22;28914;48.722;9.332;2023-03-01T10:41:13;26.00;34.30
43320;DHT22;28914;48.722;9.332;2023-03-01T10:46:34;26.80;34.10
43320;DHT22;28914;48.722;9.332;2023-03-01T10:51:54;27.70;30.90
43320;DHT22;28914;48.722;9.332;2023-03-01T10:57:29;28.10;29.80
43320;DHT22;28914;48.722;9.332;2023-03-01T11:03:11;28.80;28.70
43320;DHT22;28914;48.722;9.332;2023-03-01T11:08:36;28.80;28.80
43320;DHT22;28914;48.722;9.332;2023-03-01T11:14:06;29.10;28.40
43320;DHT22;28914;48.722;9.332;2023-03-01T11:19:26;29.20;27.60
43320;DHT22;28914;48.722;9.332;2023-03-01T11:24:54;29.30;29.00
43320;DHT22;28914;48.722;9.332;2023-03-01T11:30:27;29.50;28.00
43320;DHT22;28914;48.722;9.332;2023-03-01T11:35:58;29.90;28.90
43320;DHT22;28914;48.722;9.332;2023-03-01T11:41:26;30.40;29.60
43320;DHT22;28914;48.722;9.332;2023-03-01T11:47:04;30.60;28.40
43320;DHT22;28914;48.722;9.332;2023-03-01T12:09:06;28.10;27.80
43320;DHT22;28914;48.722;9.332;2023-03-01T12:26:28;24.10;29.20
43320;DHT22;28914;48.722;9.332;2023-03-01T12:32:10;22.90;30.00
43320;DHT22;28914;48.722;9.332;2023-03-01T12:37:54;21.60;30.40
43320;DHT22;28914;48.722;9.332;2023-03-01T12:49:18;19.00;32.20
43320;DHT22;28914;48.722;9.332;2023-03-01T12:54:38;17.80;33.50
43320;DHT22;28914;48.722;9.332;2023-03-01T13:00:10;16.80;34.60
43320;DHT22;28914;48.722;9.332;2023-03-01T13:11:17;15.40;37.00
43320;DHT22;28914;48.722;9.332;2023-03-01T13:16:40;14.80;37.90
43320;DHT22;28914;48.722;9.332;2023-03-01T13:22:27;14.40;38.20
43320;DHT22;28914;48.722;9.332;2023-03-01T13:27:47;14.20;39.00
43320;DHT22;28914;48.722;9.332;2023-03-01T13:38:58;13.90;39.90
43320;DHT22;28914;48.722;9.332;2023-03-01T13:50:00;13.50;40.50
43320;DHT22;28914;48.722;9.332;2023-03-01T14:01:29;13.30;41.60
43320;DHT22;28914;48.722;9.332;2023-03-01T14:06:49;13.20;41.40
43320;DHT22;28914;48.722;9.332;2023-03-01T14:18:18;13.20;42.00
43320;DHT22;28914;48.722;9.332;2023-03-01T14:23:38;13.10;42.40
43320;DHT22;28914;48.722;9.332;2023-03-01T14:29:01;13.10;42.80
43320;DHT22;28914;48.722;9.332;2023-03-01T14:34:24;13.10;42.40
43320;DHT22;28914;48.722;9.332;2023-03-01T14:39:43;13.20;42.50
43320;DHT22;28914;48.722;9.332;2023-03-01T14:45:13;13.10;42.70
43320;DHT22;28914;48.722;9.332;2023-03-01T14:50:34;13.10;42.60
43320;DHT22;28914;48.722;9.332;2023-03-01T14:56:01;13.00;43.00
43320;DHT22;28914;48.722;9.332;2023-03-01T15:01:24;12.90;43.00
43320;DHT22;28914;48.722;9.332;2023-03-01T15:06:43;12.80;43.20
43320;DHT22;28914;48.722;9.332;2023-03-01T15:17:54;12.60;44.20
43320;DHT22;28914;48.722;9.332;2023-03-01T15:23:27;12.40;44.00
43320;DHT22;28914;48.722;9.332;2023-03-01T15:28:50;12.30;44.40
43320;DHT22;28914;48.722;9.332;2023-03-01T15:34:26;12.20;44.30
43320;DHT22;28914;48.722;9.332;2023-03-01T15:39:56;12.10;44.50
43320;DHT22;28914;48.722;9.332;2023-03-01T15:50:36;11.90;45.10
43320;DHT22;28914;48.722;9.332;2023-03-01T15:55:58;11.80;44.80
43320;DHT22;28914;48.722;9.332;2023-03-01T16:01:18;11.80;44.70
43320;DHT22;28914;48.722;9.332;2023-03-01T16:06:37;11.70;44.90
43320;DHT22;28914;48.722;9.332;2023-03-01T16:11:58;11.60;45.00
43320;DHT22;28914;48.722;9.332;2023-03-01T16:17:17;11.50;45.30
43320;DHT22;28914;48.722;9.332;2023-03-01T16:22:36;11.50;45.80
43320;DHT22;28914;48.722;9.332;2023-03-01T16:27:55;11.40;45.40
43320;DHT22;28914;48.722;9.332;2023-03-01T16:33:17;11.30;45.50
43320;DHT22;28914;48.722;9.332;2023-03-01T16:38:36;11.10;45.50
43320;DHT22;28914;48.722;9.332;2023-03-01T16:43:55;11.00;45.50
43320;DHT22;28914;48.722;9.332;2023-03-01T16:49:14;10.90;45.70
43320;DHT22;28914;48.722;9.332;2023-03-01T16:54:33;10.80;45.80
43320;DHT22;28914;48.722;9.332;2023-03-01T16:59:53;10.60;46.40
43320;DHT22;28914;48.722;9.332;2023-03-01T17:05:12;10.50;45.80
43320;DHT22;28914;48.722;9.332;2023-03-01T17:10:33;10.40;45.80
43320;DHT22;28914;48.722;9.332;2023-03-01T17:15:52;10.30;46.00
43320;DHT22;28914;48.722;9.332;2023-03-01T17:21:11;10.10;46.10
43320;DHT22;28914;48.722;9.332;2023-03-01T17:26:31;10.00;46.30
43320;DHT22;28914;48.722;9.332;2023-03-01T17:31:50;9.80;46.50
43320;DHT22;28914;48.722;9.332;2023-03-01T17:37:09;9.70;46.70
43320;DHT22;28914;48.722;9.332;2023-03-01T17:42:28;9.50;46.90
43320;DHT22;28914;48.722;9.332;2023-03-01T17:47:48;9.40;47.00
43320;DHT22;28914;48.722;9.332;2023-03-01T17:53:08;9.20;47.30
43320;DHT22;28914;48.722;9.332;2023-03-01T17:58:28;9.00;47.40
43320;DHT22;28914;48.722;9.332;2023-03-01T18:03:52;8.80;47.70
43320;DHT22;28914;48.722;9.332;2023-03-01T18:09:11;8.70;48.00
43320;DHT22;28914;48.722;9.332;2023-03-01T18:14:30;8.50;48.20
43320;DHT22;28914;48.722;9.332;2023-03-01T18:19:51;8.40;48.30
43320;DHT22;28914;48.722;9.332;2023-03-01T18:25:11;8.20;48.50
43320;DHT22;28914;48.722;9.332;2023-03-01T18:30:30;8.10;48.90
43320;DHT22;28914;48.722;9.332;2023-03-01T18:35:50;8.00;49.00
43320;DHT22;28914;48.722;9.332;2023-03-01T18:41:10;7.80;49.50
43320;DHT22;28914;48.722;9.332;2023-03-01T18:46:29;7.70;50.00
43320;DHT22;28914;48.722;9.332;2023-03-01T18:51:48;7.50;50.00
43320;DHT22;28914;48.722;9.332;2023-03-01T18:57:08;7.40;50.50
43320;DHT22;28914;48.722;9.332;2023-03-01T19:02:28;7.30;50.70
43320;DHT22;28914;48.722;9.332;2023-03-01T19:07:48;7.20;51.20
43320;DHT22;28914;48.722;9.332;2023-03-01T19:13:07;7.10;52.00
43320;DHT22;28914;48.722;9.332;2023-03-01T19:18:26;7.00;51.50
43320;DHT22;28914;48.722;9.332;2023-03-01T19:23:46;6.90;51.70
43320;DHT22;28914;48.722;9.332;2023-03-01T19:29:07;6.90;52.20
43320;DHT22;28914;48.722;9.332;2023-03-01T19:34:28;6.80;52.20
43320;DHT22;28914;48.722;9.332;2023-03-01T19:39:47;6.60;52.90
43320;DHT22;28914;48.722;9.332;2023-03-01T19:45:07;6.50;52.70
43320;DHT22;28914;48.722;9.332;2023-03-01T19:50:26;6.40;52.80
43320;DHT22;28914;48.722;9.332;2023-03-01T19:55:46;6.20;52.90
43320;DHT22;28914;48.722;9.332;2023-03-01T20:01:18;6.10;53.30
43320;DHT22;28914;48.722;9.332;2023-03-01T20:06:38;6.10;54.30
43320;DHT22;28914;48.722;9.332;2023-03-01T20:11:58;6.00;54.20
43320;DHT22;28914;48.722;9.332;2023-03-01T20:17:17;6.20;55.00
43320;DHT22;28914;48.722;9.332;2023-03-01T20:22:36;6.00;55.10
43320;DHT22;28914;48.722;9.332;2023-03-01T20:27:56;6.00;55.00
43320;DHT22;28914;48.722;9.332;2023-03-01T20:33:15;5.90;55.90
43320;DHT22;28914;48.722;9.332;2023-03-01T20:38:35;5.90;55.10
43320;DHT22;28914;48.722;9.332;2023-03-01T20:43:55;5.80;55.40
43320;DHT22;28914;48.722;9.332;2023-03-01T20:49:16;5.80;55.70
43320;DHT22;28914;48.722;9.332;2023-03-01T20:54:36;5.90;55.80
43320;DHT22;28914;48.722;9.332;2023-03-01T20:59:55;5.70;55.80
43320;DHT22;28914;48.722;9.332;2023-03-01T21:05:14;5.70;56.40
43320;DHT22;28914;48.722;9.332;2023-03-01T21:10:34;5.80;56.60
43320;DHT22;28914;48.722;9.332;2023-03-01T21:16:20;5.80;57.00
43320;DHT22;28914;48.722;9.332;2023-03-01T21:21:39;5.80;57.00
43320;DHT22;28914;48.722;9.332;2023-03-01T21:26:59;5.90;56.70
43320;DHT22;28914;48.722;9.332;2023-03-01T21:32:20;5.90;57.00
43320;DHT22;28914;48.722;9.332;2023-03-01T21:37:39;5.90;56.90
43320;DHT22;28914;48.722;9.332;2023-03-01T21:42:58;6.00;56.70
43320;DHT22;28914;48.722;9.332;2023-03-01T21:48:17;6.00;57.20
43320;DHT22;28914;48.722;9.332;2023-03-01T21:53:37;5.90;56.50
43320;DHT22;28914;48.722;9.332;2023-03-01T21:58:57;5.90;56.60
43320;DHT22;28914;48.722;9.332;2023-03-01T22:04:16;5.80;56.90
43320;DHT22;28914;48.722;9.332;2023-03-01T22:09:36;5.70;57.10
43320;DHT22;28914;48.722;9.332;2023-03-01T22:14:56;5.60;57.40
43320;DHT22;28914;48.722;9.332;2023-03-01T22:20:16;5.50;57.40
43320;DHT22;28914;48.722;9.332;2023-03-01T22:25:41;5.40;57.60
43320;DHT22;28914;48.722;9.332;2023-03-01T22:31:04;5.40;57.60
43320;DHT22;28914;48.722;9.332;2023-03-01T22:36:24;5.30;58.10
43320;DHT22;28914;48.722;9.332;2023-03-01T22:41:45;5.30;58.20
43320;DHT22;28914;48.722;9.332;2023-03-01T22:47:04;5.20;58.30
43320;DHT22;28914;48.722;9.332;2023-03-01T22:52:24;5.20;58.10
43320;DHT22;28914;48.722;9.332;2023-03-01T22:57:43;5.20;58.20
43320;DHT22;28914;48.722;9.332;2023-03-01T23:03:02;5.10;58.30
43320;DHT22;28914;48.722;9.332;2023-03-01T23:08:21;5.00;58.50
43320;DHT22;28914;48.722;9.332;2023-03-01T23:13:41;4.90;58.60
43320;DHT22;28914;48.722;9.332;2023-03-01T23:19:00;4.90;58.50
43320;DHT22;28914;48.722;9.332;2023-03-01T23:24:22;4.80;58.70
43320;DHT22;28914;48.722;9.332;2023-03-01T23:29:43;4.70;59.00
43320;DHT22;28914;48.722;9.332;2023-03-01T23:35:03;4.60;59.10
43320;DHT22;28914;48.722;9.332;2023-03-01T23:40:22;4.60;59.40
43320;DHT22;28914;48.722;9.332;2023-03-01T23:45:42;4.50;59.20
43320;DHT22;28914;48.722;9.332;2023-03-01T23:51:04;4.40;59.20
43320;DHT22;28914;48.722;9.332;2023-03-01T23:56:26;4.30;59.40
